Lowell, Michigan
Current Conditions -  °F | °C
As of 11:53 PM on Sunday 19 Oct 2014 (Local Time) from KGRR Reporting Station
Broken Clouds Broken Clouds  
Wind Chill: 44°   Ceiling: 18000
Heat Index: 48°   Visibility: 10mi
Dew Point: 39°   Wind: 9mph
Humidity: 71%   Direction: 200°SSW
Pressure: 29.92"   Gusts: NA
Location:  42.93°N, 85.34°W
Report Text: KGRR 200353Z 20008KT 10SM SCT085 BKN180 09/04 A2992 RMK AO2 SLP135 T00890039
Loading
Personal Weather Stations






























Interactive Weather Map
Tropical Storm Tracking
New forecast layout! Learn more

10-Day Weather Forecast

Advertisements
Track Severe Weather on mobile